Time;durP1;ratioP1;P1;durP2;ratioP2;P2;SDS_P1;SDS_P2;PMS_P1;PMS_P2;Temp;Humidity;BMP_temperature;BMP_pressure;BME280_temperature;BME280_humidity;BME280_pressure;Samples;Min_cycle;Max_cycle;Signal;HPM_P1;HPM_P2
2022/09/07 00:02:10;;;;;;;;;;;;;;;;;;4931375;28;19957;-64
2022/09/07 00:04:36;;;;;;;;;;;;;;;;;;4945884;28;19985;-63
2022/09/07 00:07:01;;;;;;;;;;;;;;;;;;4930973;28;19926;-63
2022/09/07 00:09:27;;;;;;;;;;;;;;;;;;4931020;28;19957;-63
2022/09/07 00:11:52;;;;;;;;;;;;;;;;;;4945671;28;20111;-62
2022/09/07 00:14:18;;;;;;;;;;;;;;;;;;4932232;28;20374;-62
2022/09/07 00:16:43;;;;;;;;;;;;;;;;;;4930931;28;19922;-62
2022/09/07 00:19:08;;;;;;;;;;;;;;;;;;4947220;28;20387;-63
2022/09/07 00:21:34;;;;;;;;;;;;;;;;;;4932296;28;19918;-63
2022/09/07 00:23:59;;;;;;;;;;;;;;;;;;4930248;28;19934;-61
2022/09/07 00:26:25;;;;;;;;;;;;;;;;;;4931728;28;19918;-61
2022/09/07 00:28:51;;;;;;;;;;;;;;;;;;4930104;28;19926;-62
2022/09/07 00:31:17;;;;;;;;;;;;;;;;;;4929911;28;19922;-61
2022/09/07 00:33:47;;;;;;;;;;;;;;;;;;4947026;28;20001;-61
2022/09/07 00:36:13;;;;;;;;;;;;;;;;;;4928380;28;19926;-62
2022/09/07 00:38:38;;;;;;;;;;;;;;;;;;4931304;28;19956;-62
2022/09/07 00:41:05;;;;;;;;;;;;;;;;;;4928493;28;19922;-62
2022/09/07 00:46:46;;;;;;;;;;;;;;;;;;4929486;28;20122;-60
2022/09/07 00:49:12;;;;;;;;;;;;;;;;;;4930980;28;19958;-61
2022/09/07 00:51:39;;;;;;;;;;;;;;;;;;4929814;28;19922;-61
2022/09/07 00:54:07;;;;;;;;;;;;;;;;;;4926428;28;19991;-61
2022/09/07 00:56:33;;;;;;;;;;;;;;;;;;4928659;28;19973;-61
2022/09/07 00:58:58;;;;;;;;;;;;;;;;;;4931364;28;20382;-60
2022/09/07 01:01:24;;;;;;;;;;;;;;;;;;4929753;28;20013;-62
2022/09/07 01:03:49;;;;;;;;;;;;;;;;;;4930223;28;20609;-60
2022/09/07 01:06:14;;;;;;;;;;;;;;;;;;4929830;28;20060;-62
2022/09/07 01:08:40;;;;;;;;;;;;;;;;;;4930739;28;19954;-61
2022/09/07 01:11:06;;;;;;;;;;;;;;;;;;4927526;28;20061;-61
2022/09/07 01:13:32;;;;;;;;;;;;;;;;;;4930412;28;19918;-61
2022/09/07 01:15:58;;;;;;;;;;;;;;;;;;4925550;28;19929;-62
2022/09/07 01:18:25;;;;;;;;;;;;;;;;;;4930480;28;19989;-62
2022/09/07 01:20:51;;;;;;;;;;;;;;;;;;4931513;28;19919;-61
2022/09/07 01:23:16;;;;;;;;;;;;;;;;;;4932412;28;19923;-62
2022/09/07 01:25:43;;;;;;;;;;;;;;;;;;4943604;28;20033;-62
2022/09/07 01:28:09;;;;;;;;;;;;;;;;;;4931027;28;19964;-61
2022/09/07 01:30:34;;;;;;;;;;;;;;;;;;4944627;28;19962;-62
2022/09/07 01:33:05;;;;;;;;;;;;;;;;;;4931117;28;19923;-61
2022/09/07 01:35:33;;;;;;;;;;;;;;;;;;4945228;28;19930;-60
2022/09/07 01:37:58;;;;;;;;;;;;;;;;;;4944877;28;20005;-59
2022/09/07 01:40:24;;;;;;;;;;;;;;;;;;4945302;28;20037;-59
2022/09/07 01:42:49;;;;;;;;;;;;;;;;;;4930235;28;19962;-58
2022/09/07 01:45:17;;;;;;;;;;;;;;;;;;4929747;28;20083;-59
2022/09/07 01:47:42;;;;;;;;;;;;;;;;;;4929303;28;20345;-58
2022/09/07 01:50:07;;;;;;;;;;;;;;;;;;4933177;28;19930;-58
2022/09/07 01:52:33;;;;;;;;;;;;;;;;;;4933485;28;19926;-62
2022/09/07 01:54:58;;;;;;;;;;;;;;;;;;4932251;28;19973;-61
2022/09/07 01:57:24;;;;;;;;;;;;;;;;;;4930325;28;20397;-59
2022/09/07 01:59:52;;;;;;;;;;;;;;;;;;4947113;28;20052;-59
2022/09/07 02:02:20;;;;;;;;;;;;;;;;;;4949679;28;19957;-59
2022/09/07 02:04:45;;;;;;;;;;;;;;;;;;4933819;28;20139;-60
2022/09/07 02:07:13;;;;;;;;;;;;;;;;;;4932332;28;19922;-60
2022/09/07 02:09:41;;;;;;;;;;;;;;;;;;4936326;28;19919;-58
2022/09/07 02:12:06;;;;;;;;;;;;;;;;;;4933752;28;19930;-58
2022/09/07 02:14:33;;;;;;;;;;;;;;;;;;4933130;28;19927;-59
2022/09/07 02:17:01;;;;;;;;;;;;;;;;;;4933891;28;19930;-59
2022/09/07 02:19:27;;;;;;;;;;;;;;;;;;4934026;28;19957;-59
2022/09/07 02:21:55;;;;;;;;;;;;;;;;;;4934407;28;20017;-61
2022/09/07 02:24:22;;;;;;;;;;;;;;;;;;4933580;28;20473;-60
2022/09/07 02:26:48;;;;;;;;;;;;;;;;;;4933850;28;19930;-59
2022/09/07 02:29:15;;;;;;;;;;;;;;;;;;4932651;28;20010;-59
2022/09/07 02:31:41;;;;;;;;;;;;;;;;;;4948030;28;19926;-60
2022/09/07 02:34:09;;;;;;;;;;;;;;;;;;4935501;28;21806;-60
2022/09/07 02:36:39;;;;;;;;;;;;;;;;;;4933728;28;19973;-60
2022/09/07 02:39:04;;;;;;;;;;;;;;;;;;4933033;28;19922;-60
2022/09/07 02:41:29;;;;;;;;;;;;;;;;;;4933837;28;19922;-59
2022/09/07 02:43:55;;;;;;;;;;;;;;;;;;4934933;28;19922;-59
2022/09/07 02:46:20;;;;;;;;;;;;;;;;;;4934067;28;20009;-59
2022/09/07 02:48:45;;;;;;;;;;;;;;;;;;4932770;28;19985;-60
2022/09/07 02:51:10;;;;;;;;;;;;;;;;;;4932411;28;19918;-62
2022/09/07 02:53:38;;;;;;;;;;;;;;;;;;4930041;28;19929;-60
2022/09/07 02:56:05;;;;;;;;;;;;;;;;;;4931700;28;19923;-60
2022/09/07 02:58:30;;;;;;;;;;;;;;;;;;4932590;28;20403;-59
2022/09/07 03:00:56;;;;;;;;;;;;;;;;;;4932562;28;19933;-59
2022/09/07 03:03:23;;;;;;;;;;;;;;;;;;4932302;28;19922;-60
2022/09/07 03:05:49;;;;;;;;;;;;;;;;;;4931930;28;19961;-59
2022/09/07 03:08:15;;;;;;;;;;;;;;;;;;4932000;28;19922;-59
2022/09/07 03:10:40;;;;;;;;;;;;;;;;;;4931507;28;20456;-59
2022/09/07 03:13:08;;;;;;;;;;;;;;;;;;4947992;28;19923;-59
2022/09/07 03:15:33;;;;;;;;;;;;;;;;;;4932420;28;19945;-59
2022/09/07 03:17:59;;;;;;;;;;;;;;;;;;4933055;28;20659;-59
2022/09/07 03:20:29;;;;;;;;;;;;;;;;;;4934274;28;20013;-60
2022/09/07 03:22:54;;;;;;;;;;;;;;;;;;4929272;28;20001;-59
2022/09/07 03:25:21;;;;;;;;;;;;;;;;;;4934008;28;19926;-59
2022/09/07 03:27:49;;;;;;;;;;;;;;;;;;4932752;28;20600;-59
2022/09/07 03:30:14;;;;;;;;;;;;;;;;;;4931016;28;19933;-59
2022/09/07 03:32:40;;;;;;;;;;;;;;;;;;4933303;28;20434;-59
2022/09/07 03:35:05;;;;;;;;;;;;;;;;;;4932386;28;20028;-58
2022/09/07 03:37:33;;;;;;;;;;;;;;;;;;4928483;28;20275;-58
2022/09/07 03:39:58;;;;;;;;;;;;;;;;;;4932085;28;19974;-58
2022/09/07 03:42:25;;;;;;;;;;;;;;;;;;4945746;28;20042;-58
2022/09/07 03:44:53;;;;;;;;;;;;;;;;;;4947573;28;19926;-60
2022/09/07 03:47:23;;;;;;;;;;;;;;;;;;4932616;28;19972;-59
2022/09/07 03:49:53;;;;;;;;;;;;;;;;;;4929646;28;20416;-60
2022/09/07 03:52:18;;;;;;;;;;;;;;;;;;4946673;28;19919;-60
2022/09/07 03:54:46;;;;;;;;;;;;;;;;;;4932080;28;19919;-58
2022/09/07 03:57:14;;;;;;;;;;;;;;;;;;4931241;28;19977;-60
2022/09/07 03:59:40;;;;;;;;;;;;;;;;;;4947149;28;19934;-59
2022/09/07 04:02:06;;;;;;;;;;;;;;;;;;4932420;28;19956;-58
2022/09/07 04:04:31;;;;;;;;;;;;;;;;;;4932062;28;20586;-59
2022/09/07 04:06:56;;;;;;;;;;;;;;;;;;4910708;29;19923;-59
2022/09/07 04:09:21;;;;;;;;;;;;;;;;;;4933056;28;19926;-59
2022/09/07 04:11:49;;;;;;;;;;;;;;;;;;4943665;28;19922;-59
2022/09/07 04:14:17;;;;;;;;;;;;;;;;;;4931042;28;20768;-59
2022/09/07 04:16:44;;;;;;;;;;;;;;;;;;4932231;28;19923;-59
2022/09/07 04:19:09;;;;;;;;;;;;;;;;;;4930667;28;19927;-58
2022/09/07 04:21:35;;;;;;;;;;;;;;;;;;4931648;28;19919;-59
2022/09/07 04:24:00;;;;;;;;;;;;;;;;;;4931150;28;19933;-59
2022/09/07 04:26:25;;;;;;;;;;;;;;;;;;4929282;28;19931;-59
2022/09/07 04:28:51;;;;;;;;;;;;;;;;;;4931854;28;21903;-59
2022/09/07 04:31:19;;;;;;;;;;;;;;;;;;4929015;28;19923;-59
2022/09/07 04:33:45;;;;;;;;;;;;;;;;;;4932294;28;19925;-58
2022/09/07 04:36:14;;;;;;;;;;;;;;;;;;4929050;28;19928;-58
2022/09/07 04:38:40;;;;;;;;;;;;;;;;;;4946472;28;19918;-59
2022/09/07 04:41:07;;;;;;;;;;;;;;;;;;4929823;28;19923;-60
2022/09/07 04:43:34;;;;;;;;;;;;;;;;;;4929194;28;20060;-59
2022/09/07 04:46:00;;;;;;;;;;;;;;;;;;4931973;28;19922;-59
2022/09/07 04:48:25;;;;;;;;;;;;;;;;;;4931289;28;20053;-60
2022/09/07 04:50:51;;;;;;;;;;;;;;;;;;4930499;28;19961;-58
2022/09/07 04:53:18;;;;;;;;;;;;;;;;;;4931339;28;19922;-58
2022/09/07 04:55:46;;;;;;;;;;;;;;;;;;4929418;28;19980;-58
2022/09/07 04:58:11;;;;;;;;;;;;;;;;;;4931141;28;19922;-59
2022/09/07 05:00:41;;;;;;;;;;;;;;;;;;4930575;28;19986;-58
2022/09/07 05:03:07;;;;;;;;;;;;;;;;;;4932119;28;19968;-59
2022/09/07 05:05:32;;;;;;;;;;;;;;;;;;4930543;28;20494;-58
2022/09/07 05:07:57;;;;;;;;;;;;;;;;;;4927325;28;20445;-59
2022/09/07 05:10:22;;;;;;;;;;;;;;;;;;4930555;28;19986;-59
2022/09/07 05:12:48;;;;;;;;;;;;;;;;;;4930874;28;19953;-58
2022/09/07 05:15:14;;;;;;;;;;;;;;;;;;4930482;28;19922;-59
2022/09/07 05:17:39;;;;;;;;;;;;;;;;;;4927189;28;19922;-57
2022/09/07 05:20:04;;;;;;;;;;;;;;;;;;4931864;28;19966;-58
2022/09/07 05:22:29;;;;;;;;;;;;;;;;;;4931838;28;19926;-58
2022/09/07 05:24:55;;;;;;;;;;;;;;;;;;4949097;28;19923;-59
2022/09/07 05:27:23;;;;;;;;;;;;;;;;;;4935268;28;19929;-58
2022/09/07 05:29:48;;;;;;;;;;;;;;;;;;4934306;28;19953;-58
2022/09/07 05:32:14;;;;;;;;;;;;;;;;;;4934615;28;20283;-58
2022/09/07 05:34:41;;;;;;;;;;;;;;;;;;4935741;28;20426;-59
2022/09/07 05:37:07;;;;;;;;;;;;;;;;;;4932704;28;19928;-59
2022/09/07 05:39:32;;;;;;;;;;;;;;;;;;4933746;28;19927;-59
2022/09/07 05:41:58;;;;;;;;;;;;;;;;;;4933503;28;20461;-59
2022/09/07 05:44:24;;;;;;;;;;;;;;;;;;4932224;28;19930;-59
2022/09/07 05:46:52;;;;;;;;;;;;;;;;;;4934875;28;20028;-58
2022/09/07 05:49:20;;;;;;;;;;;;;;;;;;4931989;28;20021;-59
2022/09/07 05:51:45;;;;;;;;;;;;;;;;;;4931896;28;19965;-59
2022/09/07 05:54:11;;;;;;;;;;;;;;;;;;4932695;28;20005;-59
2022/09/07 05:56:36;;;;;;;;;;;;;;;;;;4933224;28;21082;-59
2022/09/07 05:59:01;;;;;;;;;;;;;;;;;;4933909;28;19925;-60
2022/09/07 06:01:27;;;;;;;;;;;;;;;;;;4933787;28;19950;-58
2022/09/07 06:03:53;;;;;;;;;;;;;;;;;;4934644;28;19979;-58
2022/09/07 06:06:18;;;;;;;;;;;;;;;;;;4931640;28;19961;-59
2022/09/07 06:08:43;;;;;;;;;;;;;;;;;;4933042;28;19977;-59
2022/09/07 06:11:16;;;;;;;;;;;;;;;;;;4934303;28;19923;-59
2022/09/07 06:13:41;;;;;;;;;;;;;;;;;;4932371;28;19974;-59
2022/09/07 06:16:07;;;;;;;;;;;;;;;;;;4933629;28;19926;-59
2022/09/07 06:18:32;;;;;;;;;;;;;;;;;;4949238;28;19929;-58
2022/09/07 06:21:00;;;;;;;;;;;;;;;;;;4933203;28;19973;-60
2022/09/07 06:23:25;;;;;;;;;;;;;;;;;;4935187;28;19923;-58
2022/09/07 06:25:53;;;;;;;;;;;;;;;;;;4932270;28;19922;-59
2022/09/07 06:28:21;;;;;;;;;;;;;;;;;;4934390;28;19919;-61
2022/09/07 06:30:48;;;;;;;;;;;;;;;;;;4948817;28;19919;-58
2022/09/07 06:33:18;;;;;;;;;;;;;;;;;;4935130;28;19930;-59
2022/09/07 06:35:46;;;;;;;;;;;;;;;;;;4932841;28;20904;-60
2022/09/07 06:38:11;;;;;;;;;;;;;;;;;;4932958;28;19923;-58
2022/09/07 06:40:37;;;;;;;;;;;;;;;;;;4933396;28;19920;-59
2022/09/07 06:43:03;;;;;;;;;;;;;;;;;;4931253;28;19977;-59
2022/09/07 06:45:29;;;;;;;;;;;;;;;;;;4933511;28;20795;-59
2022/09/07 06:47:54;;;;;;;;;;;;;;;;;;4931789;28;19922;-58
2022/09/07 06:50:20;;;;;;;;;;;;;;;;;;4934117;28;20843;-59
2022/09/07 06:52:45;;;;;;;;;;;;;;;;;;4933630;28;19988;-58
2022/09/07 06:55:14;;;;;;;;;;;;;;;;;;4932800;28;19992;-59
2022/09/07 06:57:39;;;;;;;;;;;;;;;;;;4932968;28;20283;-60
2022/09/07 07:00:07;;;;;;;;;;;;;;;;;;4933744;28;20382;-59
2022/09/07 07:02:35;;;;;;;;;;;;;;;;;;4930895;28;20009;-59
2022/09/07 07:05:02;;;;;;;;;;;;;;;;;;4933137;28;19962;-58
2022/09/07 07:07:28;;;;;;;;;;;;;;;;;;4933920;28;20354;-58
2022/09/07 07:09:53;;;;;;;;;;;;;;;;;;4931462;28;19930;-58
2022/09/07 07:12:19;;;;;;;;;;;;;;;;;;4934612;28;19918;-59
2022/09/07 07:14:44;;;;;;;;;;;;;;;;;;4933745;28;20469;-58
2022/09/07 07:17:11;;;;;;;;;;;;;;;;;;4932035;28;20009;-59
2022/09/07 07:19:37;;;;;;;;;;;;;;;;;;4932366;28;19992;-60
2022/09/07 07:22:05;;;;;;;;;;;;;;;;;;4931037;28;19919;-60
2022/09/07 07:24:30;;;;;;;;;;;;;;;;;;4932919;28;19937;-60
2022/09/07 07:26:58;;;;;;;;;;;;;;;;;;4947848;28;19922;-58
2022/09/07 07:29:23;;;;;;;;;;;;;;;;;;4931382;28;20351;-58
2022/09/07 07:31:48;;;;;;;;;;;;;;;;;;4933797;28;19942;-60
2022/09/07 07:34:16;;;;;;;;;;;;;;;;;;4932377;28;20022;-59
2022/09/07 07:37:00;;;;;;;;;;;;;;;;;;4946570;28;19927;-59
2022/09/07 07:39:30;;;;;;;;;;;;;;;;;;4931457;28;19926;-58
2022/09/07 07:41:55;;;;;;;;;;;;;;;;;;4946366;28;19926;-59
2022/09/07 07:44:20;;;;;;;;;;;;;;;;;;4931697;28;19969;-59
2022/09/07 07:46:48;;;;;;;;;;;;;;;;;;4930678;28;20372;-60
2022/09/07 07:49:15;;;;;;;;;;;;;;;;;;4929785;28;19941;-59
2022/09/07 07:51:41;;;;;;;;;;;;;;;;;;4932359;28;20393;-59
2022/09/07 07:54:08;;;;;;;;;;;;;;;;;;4932138;28;19923;-61
2022/09/07 07:56:36;;;;;;;;;;;;;;;;;;4947645;28;19938;-60
2022/09/07 07:59:04;;;;;;;;;;;;;;;;;;4929532;28;19933;-59
2022/09/07 08:01:32;;;;;;;;;;;;;;;;;;4930369;28;19922;-60
2022/09/07 08:03:59;;;;;;;;;;;;;;;;;;4933115;28;19930;-58
2022/09/07 08:06:31;;;;;;;;;;;;;;;;;;4930849;28;19926;-60
2022/09/07 08:08:59;;;;;;;;;;;;;;;;;;4934384;28;19923;-60
2022/09/07 08:11:25;;;;;;;;;;;;;;;;;;4929345;28;19981;-59
2022/09/07 08:13:54;;;;;;;;;;;;;;;;;;4933991;28;21953;-59
2022/09/07 08:16:23;;;;;;;;;;;;;;;;;;4932827;28;19918;-59
2022/09/07 08:18:50;;;;;;;;;;;;;;;;;;4945934;28;19956;-62
2022/09/07 08:21:15;;;;;;;;;;;;;;;;;;4932156;28;19925;-60
2022/09/07 08:23:41;;;;;;;;;;;;;;;;;;4931673;28;19923;-59
2022/09/07 08:26:06;;;;;;;;;;;;;;;;;;4945727;28;19932;-60
2022/09/07 08:28:32;;;;;;;;;;;;;;;;;;4946963;28;19937;-60
2022/09/07 08:34:14;;;;;;;;;;;;;;;;;;4931515;28;20653;-60
2022/09/07 08:36:42;;;;;;;;;;;;;;;;;;4930720;28;19918;-60
2022/09/07 08:39:10;;;;;;;;;;;;;;;;;;4932969;28;19954;-60
2022/09/07 08:41:35;;;;;;;;;;;;;;;;;;4926886;28;19930;-61
2022/09/07 08:44:01;;;;;;;;;;;;;;;;;;4929656;28;19926;-60
2022/09/07 08:46:26;;;;;;;;;;;;;;;;;;4932252;28;19930;-61
2022/09/07 08:48:52;;;;;;;;;;;;;;;;;;4929989;28;20626;-60
2022/09/07 08:51:17;;;;;;;;;;;;;;;;;;4930862;28;19985;-61
2022/09/07 08:53:42;;;;;;;;;;;;;;;;;;4932089;28;19923;-61
2022/09/07 08:56:09;;;;;;;;;;;;;;;;;;4931189;28;19918;-61
2022/09/07 08:58:34;;;;;;;;;;;;;;;;;;4949099;28;19973;-60
2022/09/07 09:01:00;;;;;;;;;;;;;;;;;;4935065;28;20013;-60
2022/09/07 09:03:27;;;;;;;;;;;;;;;;;;4950634;28;19923;-60
2022/09/07 09:05:53;;;;;;;;;;;;;;;;;;4949530;28;20024;-61
2022/09/07 09:08:18;;;;;;;;;;;;;;;;;;4936714;28;19996;-62
2022/09/07 09:10:44;;;;;;;;;;;;;;;;;;4935759;28;19923;-64
2022/09/07 09:13:10;;;;;;;;;;;;;;;;;;4933248;28;20764;-63
2022/09/07 09:15:35;;;;;;;;;;;;;;;;;;4934099;28;19950;-63
2022/09/07 09:18:02;;;;;;;;;;;;;;;;;;4935278;28;19930;-63
2022/09/07 09:20:28;;;;;;;;;;;;;;;;;;4934378;28;19926;-62
2022/09/07 09:23:02;;;;;;;;;;;;;;;;;;4949702;28;19993;-62
2022/09/07 09:25:28;;;;;;;;;;;;;;;;;;4935539;28;21804;-62
2022/09/07 09:27:53;;;;;;;;;;;;;;;;;;4932542;28;20013;-62
2022/09/07 09:30:19;;;;;;;;;;;;;;;;;;4934830;28;19923;-63
2022/09/07 09:32:44;;;;;;;;;;;;;;;;;;4933086;28;19918;-62
2022/09/07 09:35:09;;;;;;;;;;;;;;;;;;4936853;28;20072;-63
2022/09/07 09:37:37;;;;;;;;;;;;;;;;;;4934884;28;19929;-66
2022/09/07 09:40:03;;;;;;;;;;;;;;;;;;4933018;28;20394;-64
2022/09/07 09:42:29;;;;;;;;;;;;;;;;;;4934939;28;19930;-65
2022/09/07 09:44:54;;;;;;;;;;;;;;;;;;4932791;28;19922;-64
2022/09/07 09:47:20;;;;;;;;;;;;;;;;;;4932927;28;19927;-65
2022/09/07 09:49:46;;;;;;;;;;;;;;;;;;4934823;28;19926;-63
2022/09/07 09:52:11;;;;;;;;;;;;;;;;;;4932921;28;19963;-63
2022/09/07 09:54:37;;;;;;;;;;;;;;;;;;4948824;28;21587;-63
2022/09/07 09:57:02;;;;;;;;;;;;;;;;;;4932453;28;20067;-64
2022/09/07 09:59:28;;;;;;;;;;;;;;;;;;4947765;28;19941;-64
2022/09/07 10:01:55;;;;;;;;;;;;;;;;;;4932467;28;19923;-65
2022/09/07 10:04:21;;;;;;;;;;;;;;;;;;4934664;28;19929;-63
2022/09/07 10:06:46;;;;;;;;;;;;;;;;;;4933740;28;19923;-63
2022/09/07 10:09:12;;;;;;;;;;;;;;;;;;4931542;28;19923;-65
2022/09/07 10:11:37;;;;;;;;;;;;;;;;;;4930711;28;19923;-65
2022/09/07 10:14:03;;;;;;;;;;;;;;;;;;4933929;28;20239;-67
2022/09/07 10:16:28;;;;;;;;;;;;;;;;;;4949766;28;20008;-64
2022/09/07 10:18:54;;;;;;;;;;;;;;;;;;4947813;28;19922;-64
2022/09/07 10:21:19;;;;;;;;;;;;;;;;;;4928755;28;20028;-65
2022/09/07 10:23:45;;;;;;;;;;;;;;;;;;4934753;28;19950;-63
2022/09/07 10:26:10;;;;;;;;;;;;;;;;;;4932057;28;19965;-63
2022/09/07 10:28:37;;;;;;;;;;;;;;;;;;4948754;28;20001;-65
2022/09/07 10:31:03;;;;;;;;;;;;;;;;;;4947926;28;19933;-64
2022/09/07 10:33:28;;;;;;;;;;;;;;;;;;4933171;28;19919;-64
2022/09/07 10:35:54;;;;;;;;;;;;;;;;;;4933655;28;19926;-64
2022/09/07 10:38:19;;;;;;;;;;;;;;;;;;4933775;28;20009;-66
2022/09/07 10:40:45;;;;;;;;;;;;;;;;;;4934020;28;19922;-63
2022/09/07 10:43:11;;;;;;;;;;;;;;;;;;4932978;28;19918;-63
2022/09/07 10:45:36;;;;;;;;;;;;;;;;;;4932183;28;19969;-65
2022/09/07 10:48:05;;;;;;;;;;;;;;;;;;4948590;28;20382;-65
2022/09/07 10:50:30;;;;;;;;;;;;;;;;;;4932450;28;19930;-63
2022/09/07 10:52:56;;;;;;;;;;;;;;;;;;4947575;28;19918;-62
2022/09/07 10:55:25;;;;;;;;;;;;;;;;;;4948343;28;19922;-64
2022/09/07 10:57:56;;;;;;;;;;;;;;;;;;4932737;28;19930;-64
2022/09/07 11:00:24;;;;;;;;;;;;;;;;;;4932834;28;19954;-65
2022/09/07 11:02:49;;;;;;;;;;;;;;;;;;4933896;28;20255;-63
2022/09/07 11:05:17;;;;;;;;;;;;;;;;;;4932567;28;19918;-63
2022/09/07 11:07:42;;;;;;;;;;;;;;;;;;4948182;28;20013;-64
2022/09/07 11:10:11;;;;;;;;;;;;;;;;;;4931513;28;20408;-65
2022/09/07 11:12:36;;;;;;;;;;;;;;;;;;4947080;28;19953;-65
2022/09/07 11:15:02;;;;;;;;;;;;;;;;;;4933734;28;19926;-63
2022/09/07 11:17:27;;;;;;;;;;;;;;;;;;4932524;28;19922;-64
2022/09/07 11:19:53;;;;;;;;;;;;;;;;;;4947422;28;19929;-63
2022/09/07 11:22:18;;;;;;;;;;;;;;;;;;4946771;28;21867;-63
2022/09/07 11:24:44;;;;;;;;;;;;;;;;;;4947890;28;19926;-65
2022/09/07 11:27:10;;;;;;;;;;;;;;;;;;4933968;28;20490;-61
2022/09/07 11:29:38;;;;;;;;;;;;;;;;;;4947667;28;19918;-63
2022/09/07 11:32:04;;;;;;;;;;;;;;;;;;4931811;28;19960;-62
2022/09/07 11:34:32;;;;;;;;;;;;;;;;;;4933502;28;20602;-63
2022/09/07 11:37:02;;;;;;;;;;;;;;;;;;4931411;28;19929;-61
2022/09/07 11:39:29;;;;;;;;;;;;;;;;;;4932676;28;19922;-62
2022/09/07 11:41:57;;;;;;;;;;;;;;;;;;4931825;28;19926;-62
2022/09/07 11:44:23;;;;;;;;;;;;;;;;;;4945826;28;19929;-63
2022/09/07 11:46:48;;;;;;;;;;;;;;;;;;4930720;28;19918;-63
2022/09/07 11:49:14;;;;;;;;;;;;;;;;;;4933077;28;19934;-63
2022/09/07 11:51:39;;;;;;;;;;;;;;;;;;4947659;28;20286;-61
2022/09/07 11:54:05;;;;;;;;;;;;;;;;;;4930402;28;20590;-63
2022/09/07 11:56:32;;;;;;;;;;;;;;;;;;4945900;28;19929;-62
2022/09/07 11:59:00;;;;;;;;;;;;;;;;;;4931068;28;19930;-62
2022/09/07 12:01:25;;;;;;;;;;;;;;;;;;4927947;28;19943;-62
2022/09/07 12:03:50;;;;;;;;;;;;;;;;;;4929790;28;20534;-63
2022/09/07 12:06:16;;;;;;;;;;;;;;;;;;4927390;28;19954;-62
2022/09/07 12:08:41;;;;;;;;;;;;;;;;;;4930393;28;19923;-61
2022/09/07 12:11:10;;;;;;;;;;;;;;;;;;4930825;28;19973;-62
2022/09/07 12:13:37;;;;;;;;;;;;;;;;;;4945798;28;19973;-62
2022/09/07 12:16:03;;;;;;;;;;;;;;;;;;4931888;28;20017;-61
2022/09/07 12:18:28;;;;;;;;;;;;;;;;;;4944120;28;19925;-63
2022/09/07 12:20:54;;;;;;;;;;;;;;;;;;4930717;28;20637;-62
2022/09/07 12:23:19;;;;;;;;;;;;;;;;;;4945000;28;19973;-63
2022/09/07 12:25:45;;;;;;;;;;;;;;;;;;4945408;28;19923;-62
2022/09/07 12:28:10;;;;;;;;;;;;;;;;;;4929969;28;20688;-63
2022/09/07 12:30:35;;;;;;;;;;;;;;;;;;4928708;28;19918;-62
2022/09/07 12:33:04;;;;;;;;;;;;;;;;;;4928918;28;19922;-61
2022/09/07 12:35:34;;;;;;;;;;;;;;;;;;4930274;28;19926;-62
2022/09/07 12:38:02;;;;;;;;;;;;;;;;;;4929740;28;20307;-62
2022/09/07 12:40:33;;;;;;;;;;;;;;;;;;4928869;28;19922;-64
2022/09/07 12:46:15;;;;;;;;;;;;;;;;;;4930536;28;19956;-61
2022/09/07 12:48:45;;;;;;;;;;;;;;;;;;4945831;28;20277;-63
2022/09/07 12:51:11;;;;;;;;;;;;;;;;;;4932571;28;19926;-62
2022/09/07 12:53:36;;;;;;;;;;;;;;;;;;4947349;28;19929;-62
2022/09/07 12:56:02;;;;;;;;;;;;;;;;;;4931921;28;20057;-63
2022/09/07 12:58:27;;;;;;;;;;;;;;;;;;4931729;28;19929;-63
2022/09/07 13:00:55;;;;;;;;;;;;;;;;;;4932270;28;19918;-61
2022/09/07 13:03:21;;;;;;;;;;;;;;;;;;4933253;28;19951;-62
2022/09/07 13:05:49;;;;;;;;;;;;;;;;;;4932098;28;19930;-62
2022/09/07 13:08:14;;;;;;;;;;;;;;;;;;4933201;28;19961;-64
2022/09/07 13:10:42;;;;;;;;;;;;;;;;;;4933765;28;19938;-61
2022/09/07 13:13:08;;;;;;;;;;;;;;;;;;4931328;28;20581;-61
2022/09/07 13:15:33;;;;;;;;;;;;;;;;;;4946333;28;19970;-61
2022/09/07 13:17:59;;;;;;;;;;;;;;;;;;4932216;28;19923;-62
2022/09/07 13:20:29;;;;;;;;;;;;;;;;;;4930036;28;19918;-62
2022/09/07 13:22:54;;;;;;;;;;;;;;;;;;4932827;28;19966;-62
2022/09/07 13:25:23;;;;;;;;;;;;;;;;;;4931214;28;19918;-63
2022/09/07 13:27:48;;;;;;;;;;;;;;;;;;4926803;28;20383;-63
2022/09/07 13:30:16;;;;;;;;;;;;;;;;;;4947286;28;19923;-62
2022/09/07 13:32:42;;;;;;;;;;;;;;;;;;4933295;28;19922;-62
2022/09/07 13:35:07;;;;;;;;;;;;;;;;;;4945366;28;19972;-62
2022/09/07 13:37:34;;;;;;;;;;;;;;;;;;4932285;28;19922;-63
2022/09/07 13:40:02;;;;;;;;;;;;;;;;;;4931102;28;20000;-62
2022/09/07 13:42:46;;;;;;;;;;;;;;;;;;4932104;28;19930;-62
2022/09/07 13:45:12;;;;;;;;;;;;;;;;;;4914934;28;19926;-62
2022/09/07 13:47:37;;;;;;;;;;;;;;;;;;4934898;28;19918;-62
2022/09/07 13:50:04;;;;;;;;;;;;;;;;;;4934186;28;20777;-63
2022/09/07 13:52:29;;;;;;;;;;;;;;;;;;4932328;28;19929;-62
2022/09/07 13:54:55;;;;;;;;;;;;;;;;;;4934301;28;19930;-62
2022/09/07 13:57:20;;;;;;;;;;;;;;;;;;4935059;28;19918;-64
2022/09/07 13:59:48;;;;;;;;;;;;;;;;;;4933656;28;20349;-62
2022/09/07 14:02:13;;;;;;;;;;;;;;;;;;4936575;28;19926;-62
2022/09/07 14:04:38;;;;;;;;;;;;;;;;;;4933108;28;20670;-62
2022/09/07 14:07:05;;;;;;;;;;;;;;;;;;4935245;28;19926;-63
2022/09/07 14:09:33;;;;;;;;;;;;;;;;;;4950250;28;19918;-62
2022/09/07 14:11:58;;;;;;;;;;;;;;;;;;4935085;28;19922;-63
2022/09/07 14:14:24;;;;;;;;;;;;;;;;;;4934930;28;19938;-62
2022/09/07 14:16:49;;;;;;;;;;;;;;;;;;4950580;28;19926;-62
2022/09/07 14:19:15;;;;;;;;;;;;;;;;;;4935854;28;19974;-62
2022/09/07 14:21:40;;;;;;;;;;;;;;;;;;4933923;28;19929;-61
2022/09/07 14:24:05;;;;;;;;;;;;;;;;;;4935280;28;19929;-62
2022/09/07 14:26:31;;;;;;;;;;;;;;;;;;4934384;28;20090;-62
2022/09/07 14:29:00;;;;;;;;;;;;;;;;;;4936342;28;19923;-62
2022/09/07 14:31:29;;;;;;;;;;;;;;;;;;4934458;28;20029;-61
2022/09/07 14:34:00;;;;;;;;;;;;;;;;;;4949725;28;19918;-62
2022/09/07 14:36:25;;;;;;;;;;;;;;;;;;4930381;28;19926;-63
2022/09/07 14:38:50;;;;;;;;;;;;;;;;;;4933429;28;20370;-61
2022/09/07 14:41:16;;;;;;;;;;;;;;;;;;4935727;28;19979;-62
2022/09/07 14:43:41;;;;;;;;;;;;;;;;;;4935388;28;19938;-62
2022/09/07 14:46:06;;;;;;;;;;;;;;;;;;4933545;28;20874;-62
2022/09/07 14:48:34;;;;;;;;;;;;;;;;;;4934210;28;20002;-62
2022/09/07 14:50:59;;;;;;;;;;;;;;;;;;4929762;28;19926;-61
2022/09/07 14:53:27;;;;;;;;;;;;;;;;;;4935185;28;20859;-62
2022/09/07 14:55:52;;;;;;;;;;;;;;;;;;4948652;28;19926;-62
2022/09/07 14:58:20;;;;;;;;;;;;;;;;;;4933183;28;19926;-63
2022/09/07 15:00:48;;;;;;;;;;;;;;;;;;4934173;28;20748;-62
2022/09/07 15:03:15;;;;;;;;;;;;;;;;;;4932942;28;19939;-63
2022/09/07 15:08:59;;;;;;;;;;;;;;;;;;4933109;28;19925;-62
2022/09/07 15:11:27;;;;;;;;;;;;;;;;;;4933427;28;20603;-63
2022/09/07 15:13:52;;;;;;;;;;;;;;;;;;4932768;28;19928;-63
2022/09/07 15:16:17;;;;;;;;;;;;;;;;;;4947510;28;19930;-62
2022/09/07 15:18:43;;;;;;;;;;;;;;;;;;4935366;28;20473;-62
2022/09/07 15:21:09;;;;;;;;;;;;;;;;;;4933092;28;19929;-62
2022/09/07 15:23:34;;;;;;;;;;;;;;;;;;4933719;28;19966;-62
2022/09/07 15:26:01;;;;;;;;;;;;;;;;;;4933608;28;19918;-62
2022/09/07 15:28:29;;;;;;;;;;;;;;;;;;4933799;28;20032;-64
2022/09/07 15:30:55;;;;;;;;;;;;;;;;;;4934444;28;19922;-64
2022/09/07 15:33:38;;;;;;;;;;;;;;;;;;4933563;28;20722;-62
2022/09/07 15:36:05;;;;;;;;;;;;;;;;;;4930845;28;19923;-63
2022/09/07 15:38:31;;;;;;;;;;;;;;;;;;4933899;28;19930;-63
2022/09/07 15:40:57;;;;;;;;;;;;;;;;;;4947553;28;20005;-63
2022/09/07 15:43:22;;;;;;;;;;;;;;;;;;4948217;28;19922;-63
2022/09/07 15:45:48;;;;;;;;;;;;;;;;;;4933088;28;19949;-63
2022/09/07 15:48:14;;;;;;;;;;;;;;;;;;4932882;28;19934;-63
2022/09/07 15:50:40;;;;;;;;;;;;;;;;;;4946486;28;20956;-63
2022/09/07 15:53:05;;;;;;;;;;;;;;;;;;4946808;28;19918;-63
2022/09/07 15:55:31;;;;;;;;;;;;;;;;;;4947636;28;20650;-63
2022/09/07 15:57:56;;;;;;;;;;;;;;;;;;4947921;28;19925;-63
2022/09/07 16:00:21;;;;;;;;;;;;;;;;;;4933152;28;19922;-63
2022/09/07 16:02:47;;;;;;;;;;;;;;;;;;4947449;28;19929;-63
2022/09/07 16:05:13;;;;;;;;;;;;;;;;;;4946805;28;19918;-63
2022/09/07 16:07:40;;;;;;;;;;;;;;;;;;4946864;28;19969;-69
2022/09/07 16:10:05;;;;;;;;;;;;;;;;;;4930910;28;19922;-64
2022/09/07 16:12:31;;;;;;;;;;;;;;;;;;4932807;28;19920;-62
2022/09/07 16:14:56;;;;;;;;;;;;;;;;;;4931832;28;19933;-63
2022/09/07 16:17:22;;;;;;;;;;;;;;;;;;4928758;28;20349;-64
2022/09/07 16:19:47;;;;;;;;;;;;;;;;;;4931647;28;19922;-64
2022/09/07 16:22:12;;;;;;;;;;;;;;;;;;4932004;28;20885;-63
2022/09/07 16:24:38;;;;;;;;;;;;;;;;;;4932440;28;19926;-62
2022/09/07 16:27:05;;;;;;;;;;;;;;;;;;4933180;28;20648;-63
2022/09/07 16:29:30;;;;;;;;;;;;;;;;;;4931218;28;20016;-63
2022/09/07 16:31:55;;;;;;;;;;;;;;;;;;4932138;28;19977;-62
2022/09/07 16:34:20;;;;;;;;;;;;;;;;;;4932061;28;19923;-63
2022/09/07 16:36:46;;;;;;;;;;;;;;;;;;4931652;28;20534;-63
2022/09/07 16:39:12;;;;;;;;;;;;;;;;;;4930643;28;19930;-63
2022/09/07 16:41:37;;;;;;;;;;;;;;;;;;4930064;28;19918;-63
2022/09/07 16:44:06;;;;;;;;;;;;;;;;;;4918062;28;19930;-64
2022/09/07 16:46:34;;;;;;;;;;;;;;;;;;4929120;28;19935;-62
2022/09/07 16:49:01;;;;;;;;;;;;;;;;;;4946492;28;20549;-63
2022/09/07 16:51:28;;;;;;;;;;;;;;;;;;4930915;28;20009;-63
2022/09/07 16:53:53;;;;;;;;;;;;;;;;;;4931234;28;20134;-63